Fernwood, Washington
Current Conditions -  °F | °C
As of 5:15 PM on Saturday 25 Oct 2014 (Local Time) from KPWT Reporting Station
Overcast Overcast  
Wind Chill: 14°   Ceiling: 3400
Heat Index: 14°   Visibility: 10mi
Dew Point: 12°   Wind: 12mph
Humidity: 88%   Direction: 170°S
Pressure: 29.27"   Gusts: 21mph
Location:  47.5378°N, 122.589°W
Report Text: KPWT 260015Z AUTO 17010G18KT 10SM BKN034 OVC040 14/12 A2927 RMK AO1 P0006
Loading
Personal Weather Stations






























Interactive Weather Map
Tropical Storm Tracking
New forecast layout! Learn more

10-Day Weather Forecast

Advertisements
Track Severe Weather on mobile